sensor_id;sensor_type;location;lat;lon;timestamp;P1;durP1;ratioP1;P2;durP2;ratioP2
20557;SDS011;10437;48.156;11.530;2022-11-15T00:01:24;8.03;;;4.53;;
20557;SDS011;10437;48.156;11.530;2022-11-15T00:03:51;7.37;;;3.50;;
20557;SDS011;10437;48.156;11.530;2022-11-15T00:06:18;7.77;;;3.90;;
20557;SDS011;10437;48.156;11.530;2022-11-15T00:08:45;7.73;;;3.47;;
20557;SDS011;10437;48.156;11.530;2022-11-15T00:11:12;5.73;;;3.47;;
20557;SDS011;10437;48.156;11.530;2022-11-15T00:13:41;5.17;;;3.17;;
20557;SDS011;10437;48.156;11.530;2022-11-15T00:16:08;6.37;;;3.47;;
20557;SDS011;10437;48.156;11.530;2022-11-15T00:18:37;5.90;;;3.30;;
20557;SDS011;10437;48.156;11.530;2022-11-15T00:21:04;4.67;;;2.67;;
20557;SDS011;10437;48.156;11.530;2022-11-15T00:23:33;5.53;;;3.20;;
20557;SDS011;10437;48.156;11.530;2022-11-15T00:26:00;6.13;;;2.70;;
20557;SDS011;10437;48.156;11.530;2022-11-15T00:28:27;5.00;;;2.63;;
20557;SDS011;10437;48.156;11.530;2022-11-15T00:31:00;6.90;;;3.20;;
20557;SDS011;10437;48.156;11.530;2022-11-15T00:33:28;5.13;;;2.80;;
20557;SDS011;10437;48.156;11.530;2022-11-15T00:35:59;5.00;;;2.90;;
20557;SDS011;10437;48.156;11.530;2022-11-15T00:38:29;4.23;;;2.57;;
20557;SDS011;10437;48.156;11.530;2022-11-15T00:40:57;5.40;;;3.00;;
20557;SDS011;10437;48.156;11.530;2022-11-15T00:43:24;7.47;;;3.00;;
20557;SDS011;10437;48.156;11.530;2022-11-15T00:45:51;6.13;;;3.20;;
20557;SDS011;10437;48.156;11.530;2022-11-15T00:48:20;4.23;;;2.53;;
20557;SDS011;10437;48.156;11.530;2022-11-15T00:50:47;6.70;;;2.80;;
20557;SDS011;10437;48.156;11.530;2022-11-15T00:53:15;3.47;;;2.40;;
20557;SDS011;10437;48.156;11.530;2022-11-15T00:55:42;5.27;;;2.63;;
20557;SDS011;10437;48.156;11.530;2022-11-15T00:58:09;5.03;;;2.83;;
20557;SDS011;10437;48.156;11.530;2022-11-15T01:00:36;7.30;;;4.07;;
20557;SDS011;10437;48.156;11.530;2022-11-15T01:03:03;6.13;;;3.13;;
20557;SDS011;10437;48.156;11.530;2022-11-15T01:05:32;6.80;;;2.97;;
20557;SDS011;10437;48.156;11.530;2022-11-15T01:07:58;5.57;;;2.87;;
20557;SDS011;10437;48.156;11.530;2022-11-15T01:10:26;3.77;;;2.47;;
20557;SDS011;10437;48.156;11.530;2022-11-15T01:12:53;4.93;;;2.77;;
20557;SDS011;10437;48.156;11.530;2022-11-15T01:15:20;6.57;;;3.13;;
20557;SDS011;10437;48.156;11.530;2022-11-15T01:17:47;5.20;;;2.77;;
20557;SDS011;10437;48.156;11.530;2022-11-15T01:20:14;6.17;;;2.80;;
20557;SDS011;10437;48.156;11.530;2022-11-15T01:22:43;4.50;;;2.93;;
20557;SDS011;10437;48.156;11.530;2022-11-15T01:25:09;4.77;;;2.60;;
20557;SDS011;10437;48.156;11.530;2022-11-15T01:27:36;5.47;;;3.40;;
20557;SDS011;10437;48.156;11.530;2022-11-15T01:30:04;6.87;;;2.93;;
20557;SDS011;10437;48.156;11.530;2022-11-15T01:32:33;4.53;;;2.90;;
20557;SDS011;10437;48.156;11.530;2022-11-15T01:35:00;5.30;;;2.50;;
20557;SDS011;10437;48.156;11.530;2022-11-15T01:37:27;3.77;;;2.60;;
20557;SDS011;10437;48.156;11.530;2022-11-15T01:39:56;4.80;;;2.57;;
20557;SDS011;10437;48.156;11.530;2022-11-15T01:42:23;4.50;;;2.80;;
20557;SDS011;10437;48.156;11.530;2022-11-15T01:44:50;4.93;;;2.30;;
20557;SDS011;10437;48.156;11.530;2022-11-15T01:47:20;4.77;;;3.03;;
20557;SDS011;10437;48.156;11.530;2022-11-15T01:49:52;6.00;;;2.43;;
20557;SDS011;10437;48.156;11.530;2022-11-15T01:52:22;5.10;;;2.60;;
20557;SDS011;10437;48.156;11.530;2022-11-15T01:54:52;4.63;;;2.47;;
20557;SDS011;10437;48.156;11.530;2022-11-15T01:57:23;5.87;;;3.07;;
20557;SDS011;10437;48.156;11.530;2022-11-15T01:59:50;3.67;;;2.50;;
20557;SDS011;10437;48.156;11.530;2022-11-15T02:02:18;6.43;;;2.90;;
20557;SDS011;10437;48.156;11.530;2022-11-15T02:04:45;3.10;;;2.40;;
20557;SDS011;10437;48.156;11.530;2022-11-15T02:07:14;3.90;;;2.53;;
20557;SDS011;10437;48.156;11.530;2022-11-15T02:09:43;5.07;;;2.43;;
20557;SDS011;10437;48.156;11.530;2022-11-15T02:12:13;4.20;;;2.43;;
20557;SDS011;10437;48.156;11.530;2022-11-15T02:14:42;5.07;;;2.60;;
20557;SDS011;10437;48.156;11.530;2022-11-15T02:17:21;4.17;;;2.53;;
20557;SDS011;10437;48.156;11.530;2022-11-15T02:20:10;4.70;;;2.53;;
20557;SDS011;10437;48.156;11.530;2022-11-15T02:23:07;3.57;;;2.20;;
20557;SDS011;10437;48.156;11.530;2022-11-15T02:25:55;7.40;;;3.10;;
20557;SDS011;10437;48.156;11.530;2022-11-15T02:28:45;3.93;;;2.47;;
20557;SDS011;10437;48.156;11.530;2022-11-15T02:31:22;4.60;;;2.40;;
20557;SDS011;10437;48.156;11.530;2022-11-15T02:33:55;5.07;;;2.77;;
20557;SDS011;10437;48.156;11.530;2022-11-15T02:36:32;3.83;;;2.63;;
20557;SDS011;10437;48.156;11.530;2022-11-15T02:39:07;4.57;;;2.47;;
20557;SDS011;10437;48.156;11.530;2022-11-15T02:41:42;4.33;;;2.70;;
20557;SDS011;10437;48.156;11.530;2022-11-15T02:44:14;5.13;;;2.30;;
20557;SDS011;10437;48.156;11.530;2022-11-15T02:46:49;5.73;;;2.60;;
20557;SDS011;10437;48.156;11.530;2022-11-15T02:49:36;6.50;;;2.70;;
20557;SDS011;10437;48.156;11.530;2022-11-15T02:52:05;6.23;;;2.53;;
20557;SDS011;10437;48.156;11.530;2022-11-15T02:54:33;5.33;;;2.57;;
20557;SDS011;10437;48.156;11.530;2022-11-15T02:57:01;4.47;;;2.67;;
20557;SDS011;10437;48.156;11.530;2022-11-15T02:59:38;4.73;;;2.87;;
20557;SDS011;10437;48.156;11.530;2022-11-15T03:02:21;4.50;;;2.47;;
20557;SDS011;10437;48.156;11.530;2022-11-15T03:04:59;3.80;;;2.33;;
20557;SDS011;10437;48.156;11.530;2022-11-15T03:07:35;5.67;;;2.90;;
20557;SDS011;10437;48.156;11.530;2022-11-15T03:10:10;3.63;;;2.33;;
20557;SDS011;10437;48.156;11.530;2022-11-15T03:12:43;7.80;;;2.70;;
20557;SDS011;10437;48.156;11.530;2022-11-15T03:15:17;3.50;;;2.33;;
20557;SDS011;10437;48.156;11.530;2022-11-15T03:17:49;4.23;;;2.33;;
20557;SDS011;10437;48.156;11.530;2022-11-15T03:20:19;3.77;;;2.20;;
20557;SDS011;10437;48.156;11.530;2022-11-15T03:22:46;4.53;;;1.97;;
20557;SDS011;10437;48.156;11.530;2022-11-15T03:25:16;4.00;;;2.13;;
20557;SDS011;10437;48.156;11.530;2022-11-15T03:27:48;8.10;;;2.43;;
20557;SDS011;10437;48.156;11.530;2022-11-15T03:30:18;6.07;;;2.30;;
20557;SDS011;10437;48.156;11.530;2022-11-15T03:32:46;3.63;;;2.50;;
20557;SDS011;10437;48.156;11.530;2022-11-15T03:35:17;5.10;;;2.43;;
20557;SDS011;10437;48.156;11.530;2022-11-15T03:37:48;5.53;;;2.33;;
20557;SDS011;10437;48.156;11.530;2022-11-15T03:40:18;4.00;;;2.50;;
20557;SDS011;10437;48.156;11.530;2022-11-15T03:42:53;3.93;;;2.50;;
20557;SDS011;10437;48.156;11.530;2022-11-15T03:45:28;4.20;;;2.40;;
20557;SDS011;10437;48.156;11.530;2022-11-15T03:48:01;4.27;;;2.23;;
20557;SDS011;10437;48.156;11.530;2022-11-15T03:50:33;4.50;;;2.07;;
20557;SDS011;10437;48.156;11.530;2022-11-15T03:53:00;3.60;;;2.27;;
20557;SDS011;10437;48.156;11.530;2022-11-15T03:55:27;4.87;;;2.60;;
20557;SDS011;10437;48.156;11.530;2022-11-15T03:57:56;4.10;;;2.43;;
20557;SDS011;10437;48.156;11.530;2022-11-15T04:00:25;3.97;;;2.33;;
20557;SDS011;10437;48.156;11.530;2022-11-15T04:02:52;3.87;;;2.40;;
20557;SDS011;10437;48.156;11.530;2022-11-15T04:05:21;4.80;;;2.47;;
20557;SDS011;10437;48.156;11.530;2022-11-15T04:07:48;4.60;;;2.00;;
20557;SDS011;10437;48.156;11.530;2022-11-15T04:10:15;4.63;;;2.27;;
20557;SDS011;10437;48.156;11.530;2022-11-15T04:12:42;2.73;;;1.87;;
20557;SDS011;10437;48.156;11.530;2022-11-15T04:15:13;5.57;;;2.00;;
20557;SDS011;10437;48.156;11.530;2022-11-15T04:17:41;3.20;;;2.10;;
20557;SDS011;10437;48.156;11.530;2022-11-15T04:20:10;7.00;;;2.30;;
20557;SDS011;10437;48.156;11.530;2022-11-15T04:22:59;3.53;;;2.27;;
20557;SDS011;10437;48.156;11.530;2022-11-15T04:25:44;4.23;;;2.30;;
20557;SDS011;10437;48.156;11.530;2022-11-15T04:28:12;5.30;;;2.13;;
20557;SDS011;10437;48.156;11.530;2022-11-15T04:30:39;3.87;;;2.17;;
20557;SDS011;10437;48.156;11.530;2022-11-15T04:33:06;5.37;;;2.20;;
20557;SDS011;10437;48.156;11.530;2022-11-15T04:35:33;3.10;;;1.83;;
20557;SDS011;10437;48.156;11.530;2022-11-15T04:38:02;4.63;;;2.30;;
20557;SDS011;10437;48.156;11.530;2022-11-15T04:40:29;3.63;;;2.10;;
20557;SDS011;10437;48.156;11.530;2022-11-15T04:42:56;4.57;;;2.47;;
20557;SDS011;10437;48.156;11.530;2022-11-15T04:45:23;4.40;;;2.23;;
20557;SDS011;10437;48.156;11.530;2022-11-15T04:47:50;4.33;;;2.00;;
20557;SDS011;10437;48.156;11.530;2022-11-15T04:50:17;3.43;;;2.07;;
20557;SDS011;10437;48.156;11.530;2022-11-15T04:52:50;4.07;;;2.03;;
20557;SDS011;10437;48.156;11.530;2022-11-15T04:55:19;3.80;;;2.10;;
20557;SDS011;10437;48.156;11.530;2022-11-15T04:57:47;6.47;;;2.13;;
20557;SDS011;10437;48.156;11.530;2022-11-15T05:00:15;4.13;;;2.77;;
20557;SDS011;10437;48.156;11.530;2022-11-15T05:02:43;3.60;;;2.10;;
20557;SDS011;10437;48.156;11.530;2022-11-15T05:05:28;4.67;;;2.07;;
20557;SDS011;10437;48.156;11.530;2022-11-15T05:07:55;4.23;;;2.20;;
20557;SDS011;10437;48.156;11.530;2022-11-15T05:10:23;2.77;;;1.90;;
20557;SDS011;10437;48.156;11.530;2022-11-15T05:12:50;3.20;;;2.10;;
20557;SDS011;10437;48.156;11.530;2022-11-15T05:15:17;3.83;;;2.10;;
20557;SDS011;10437;48.156;11.530;2022-11-15T05:17:44;3.53;;;2.07;;
20557;SDS011;10437;48.156;11.530;2022-11-15T05:20:11;3.73;;;2.13;;
20557;SDS011;10437;48.156;11.530;2022-11-15T05:22:38;2.30;;;1.80;;
20557;SDS011;10437;48.156;11.530;2022-11-15T05:25:06;3.97;;;2.17;;
20557;SDS011;10437;48.156;11.530;2022-11-15T05:27:34;3.13;;;1.73;;
20557;SDS011;10437;48.156;11.530;2022-11-15T05:30:01;3.87;;;2.03;;
20557;SDS011;10437;48.156;11.530;2022-11-15T05:32:28;4.47;;;1.80;;
20557;SDS011;10437;48.156;11.530;2022-11-15T05:34:55;4.43;;;1.90;;
20557;SDS011;10437;48.156;11.530;2022-11-15T05:37:22;4.90;;;1.93;;
20557;SDS011;10437;48.156;11.530;2022-11-15T05:39:49;5.00;;;1.97;;
20557;SDS011;10437;48.156;11.530;2022-11-15T05:42:17;3.47;;;1.93;;
20557;SDS011;10437;48.156;11.530;2022-11-15T05:44:46;5.17;;;2.43;;
20557;SDS011;10437;48.156;11.530;2022-11-15T05:47:16;4.37;;;2.30;;
20557;SDS011;10437;48.156;11.530;2022-11-15T05:49:45;4.03;;;2.20;;
20557;SDS011;10437;48.156;11.530;2022-11-15T05:52:15;4.27;;;1.80;;
20557;SDS011;10437;48.156;11.530;2022-11-15T05:54:45;6.03;;;1.93;;
20557;SDS011;10437;48.156;11.530;2022-11-15T05:57:12;4.63;;;2.33;;
20557;SDS011;10437;48.156;11.530;2022-11-15T05:59:39;3.13;;;1.73;;
20557;SDS011;10437;48.156;11.530;2022-11-15T06:02:09;4.83;;;2.20;;
20557;SDS011;10437;48.156;11.530;2022-11-15T06:04:37;3.43;;;1.77;;
20557;SDS011;10437;48.156;11.530;2022-11-15T06:07:04;5.43;;;2.13;;
20557;SDS011;10437;48.156;11.530;2022-11-15T06:09:31;3.20;;;1.67;;
20557;SDS011;10437;48.156;11.530;2022-11-15T06:11:58;3.33;;;2.00;;
20557;SDS011;10437;48.156;11.530;2022-11-15T06:14:25;2.83;;;1.77;;
20557;SDS011;10437;48.156;11.530;2022-11-15T06:16:52;4.53;;;2.13;;
20557;SDS011;10437;48.156;11.530;2022-11-15T06:19:21;6.77;;;2.03;;
20557;SDS011;10437;48.156;11.530;2022-11-15T06:21:48;3.73;;;1.90;;
20557;SDS011;10437;48.156;11.530;2022-11-15T06:24:15;8.90;;;2.10;;
20557;SDS011;10437;48.156;11.530;2022-11-15T06:26:42;6.20;;;2.20;;
20557;SDS011;10437;48.156;11.530;2022-11-15T06:29:09;8.43;;;3.20;;
20557;SDS011;10437;48.156;11.530;2022-11-15T06:31:36;5.27;;;2.33;;
20557;SDS011;10437;48.156;11.530;2022-11-15T06:34:03;7.10;;;2.40;;
20557;SDS011;10437;48.156;11.530;2022-11-15T06:36:33;6.60;;;2.20;;
20557;SDS011;10437;48.156;11.530;2022-11-15T06:39:00;7.73;;;2.50;;
20557;SDS011;10437;48.156;11.530;2022-11-15T06:41:27;5.73;;;2.60;;
20557;SDS011;10437;48.156;11.530;2022-11-15T06:43:55;7.50;;;2.30;;
20557;SDS011;10437;48.156;11.530;2022-11-15T06:46:22;6.37;;;2.83;;
20557;SDS011;10437;48.156;11.530;2022-11-15T06:48:50;5.33;;;2.27;;
20557;SDS011;10437;48.156;11.530;2022-11-15T06:51:17;9.70;;;2.70;;
20557;SDS011;10437;48.156;11.530;2022-11-15T06:53:46;5.40;;;2.97;;
20557;SDS011;10437;48.156;11.530;2022-11-15T06:56:12;5.20;;;2.43;;
20557;SDS011;10437;48.156;11.530;2022-11-15T06:58:40;7.63;;;2.47;;
20557;SDS011;10437;48.156;11.530;2022-11-15T07:01:07;7.97;;;2.73;;
20557;SDS011;10437;48.156;11.530;2022-11-15T07:03:37;6.57;;;3.03;;
20557;SDS011;10437;48.156;11.530;2022-11-15T07:06:06;13.33;;;3.10;;
20557;SDS011;10437;48.156;11.530;2022-11-15T07:08:33;7.37;;;2.80;;
20557;SDS011;10437;48.156;11.530;2022-11-15T07:11:03;7.63;;;2.50;;
20557;SDS011;10437;48.156;11.530;2022-11-15T07:13:31;10.37;;;3.27;;
20557;SDS011;10437;48.156;11.530;2022-11-15T07:16:01;12.40;;;3.37;;
20557;SDS011;10437;48.156;11.530;2022-11-15T07:18:28;7.30;;;3.70;;
20557;SDS011;10437;48.156;11.530;2022-11-15T07:20:59;7.67;;;3.23;;
20557;SDS011;10437;48.156;11.530;2022-11-15T07:23:26;8.10;;;2.97;;
20557;SDS011;10437;48.156;11.530;2022-11-15T07:25:55;10.17;;;2.70;;
20557;SDS011;10437;48.156;11.530;2022-11-15T07:28:24;6.80;;;2.87;;
20557;SDS011;10437;48.156;11.530;2022-11-15T07:30:51;7.80;;;2.63;;
20557;SDS011;10437;48.156;11.530;2022-11-15T07:33:18;5.47;;;2.67;;
20557;SDS011;10437;48.156;11.530;2022-11-15T07:35:45;11.93;;;3.40;;
20557;SDS011;10437;48.156;11.530;2022-11-15T07:38:14;9.33;;;3.13;;
20557;SDS011;10437;48.156;11.530;2022-11-15T07:40:44;5.37;;;2.47;;
20557;SDS011;10437;48.156;11.530;2022-11-15T07:43:11;6.20;;;2.10;;
20557;SDS011;10437;48.156;11.530;2022-11-15T07:45:41;3.47;;;2.00;;
20557;SDS011;10437;48.156;11.530;2022-11-15T07:48:09;7.73;;;2.63;;
20557;SDS011;10437;48.156;11.530;2022-11-15T07:50:36;5.70;;;2.70;;
20557;SDS011;10437;48.156;11.530;2022-11-15T07:53:04;6.67;;;2.20;;
20557;SDS011;10437;48.156;11.530;2022-11-15T07:55:31;4.87;;;2.57;;
20557;SDS011;10437;48.156;11.530;2022-11-15T07:58:01;4.33;;;2.00;;
20557;SDS011;10437;48.156;11.530;2022-11-15T08:00:29;5.23;;;2.50;;
20557;SDS011;10437;48.156;11.530;2022-11-15T08:03:04;7.97;;;2.87;;
20557;SDS011;10437;48.156;11.530;2022-11-15T08:05:32;6.87;;;2.57;;
20557;SDS011;10437;48.156;11.530;2022-11-15T08:08:00;7.60;;;3.00;;
20557;SDS011;10437;48.156;11.530;2022-11-15T08:10:28;8.37;;;2.60;;
20557;SDS011;10437;48.156;11.530;2022-11-15T08:12:58;3.70;;;2.35;;
20557;SDS011;10437;48.156;11.530;2022-11-15T08:15:25;5.90;;;2.50;;
20557;SDS011;10437;48.156;11.530;2022-11-15T08:17:53;8.70;;;2.90;;
20557;SDS011;10437;48.156;11.530;2022-11-15T08:20:22;6.50;;;2.63;;
20557;SDS011;10437;48.156;11.530;2022-11-15T08:22:50;7.68;;;2.70;;
20557;SDS011;10437;48.156;11.530;2022-11-15T08:25:17;8.10;;;2.60;;
20557;SDS011;10437;48.156;11.530;2022-11-15T08:27:44;9.17;;;3.10;;
20557;SDS011;10437;48.156;11.530;2022-11-15T08:30:11;8.05;;;2.75;;
20557;SDS011;10437;48.156;11.530;2022-11-15T08:32:41;7.97;;;2.75;;
20557;SDS011;10437;48.156;11.530;2022-11-15T08:35:08;4.82;;;2.50;;
20557;SDS011;10437;48.156;11.530;2022-11-15T08:37:36;6.43;;;2.72;;
20557;SDS011;10437;48.156;11.530;2022-11-15T08:40:03;10.45;;;3.30;;
20557;SDS011;10437;48.156;11.530;2022-11-15T08:42:31;10.90;;;3.22;;
20557;SDS011;10437;48.156;11.530;2022-11-15T08:44:58;8.25;;;2.88;;
20557;SDS011;10437;48.156;11.530;2022-11-15T08:47:24;7.18;;;2.63;;
20557;SDS011;10437;48.156;11.530;2022-11-15T08:49:51;7.20;;;2.97;;
20557;SDS011;10437;48.156;11.530;2022-11-15T08:52:18;8.95;;;3.05;;
20557;SDS011;10437;48.156;11.530;2022-11-15T08:54:47;6.35;;;2.35;;
20557;SDS011;10437;48.156;11.530;2022-11-15T08:57:13;4.85;;;2.30;;
20557;SDS011;10437;48.156;11.530;2022-11-15T08:59:40;5.95;;;2.20;;
20557;SDS011;10437;48.156;11.530;2022-11-15T09:02:10;8.20;;;2.55;;
20557;SDS011;10437;48.156;11.530;2022-11-15T09:04:39;4.75;;;2.25;;
20557;SDS011;10437;48.156;11.530;2022-11-15T09:07:06;6.45;;;2.30;;
20557;SDS011;10437;48.156;11.530;2022-11-15T09:09:33;4.63;;;2.20;;
20557;SDS011;10437;48.156;11.530;2022-11-15T09:12:01;7.72;;;2.35;;
20557;SDS011;10437;48.156;11.530;2022-11-15T09:14:28;10.18;;;3.20;;
20557;SDS011;10437;48.156;11.530;2022-11-15T09:16:55;5.38;;;2.75;;
20557;SDS011;10437;48.156;11.530;2022-11-15T09:19:23;7.20;;;2.78;;
20557;SDS011;10437;48.156;11.530;2022-11-15T09:21:50;3.63;;;2.58;;
20557;SDS011;10437;48.156;11.530;2022-11-15T09:24:17;5.85;;;2.38;;
20557;SDS011;10437;48.156;11.530;2022-11-15T09:26:44;3.70;;;1.90;;
20557;SDS011;10437;48.156;11.530;2022-11-15T09:29:13;8.60;;;2.20;;
20557;SDS011;10437;48.156;11.530;2022-11-15T09:31:40;3.63;;;2.22;;
20557;SDS011;10437;48.156;11.530;2022-11-15T09:34:07;5.63;;;2.15;;
20557;SDS011;10437;48.156;11.530;2022-11-15T09:36:34;6.00;;;2.33;;
20557;SDS011;10437;48.156;11.530;2022-11-15T09:39:01;5.50;;;3.40;;
20557;SDS011;10437;48.156;11.530;2022-11-15T09:41:32;4.35;;;2.42;;
20557;SDS011;10437;48.156;11.530;2022-11-15T09:44:21;8.00;;;3.35;;
20557;SDS011;10437;48.156;11.530;2022-11-15T09:47:03;15.13;;;4.15;;
20557;SDS011;10437;48.156;11.530;2022-11-15T09:49:50;9.43;;;3.17;;
20557;SDS011;10437;48.156;11.530;2022-11-15T09:52:19;12.88;;;3.08;;
20557;SDS011;10437;48.156;11.530;2022-11-15T09:54:48;8.05;;;3.03;;
20557;SDS011;10437;48.156;11.530;2022-11-15T09:57:18;6.85;;;2.70;;
20557;SDS011;10437;48.156;11.530;2022-11-15T09:59:55;8.00;;;3.08;;
20557;SDS011;10437;48.156;11.530;2022-11-15T10:02:33;5.50;;;2.60;;
20557;SDS011;10437;48.156;11.530;2022-11-15T10:05:07;3.03;;;2.10;;
20557;SDS011;10437;48.156;11.530;2022-11-15T10:07:40;5.43;;;2.50;;
20557;SDS011;10437;48.156;11.530;2022-11-15T10:10:18;6.10;;;2.10;;
20557;SDS011;10437;48.156;11.530;2022-11-15T10:12:51;5.97;;;2.20;;
20557;SDS011;10437;48.156;11.530;2022-11-15T10:15:21;4.68;;;2.53;;
20557;SDS011;10437;48.156;11.530;2022-11-15T10:20:39;6.53;;;2.28;;
20557;SDS011;10437;48.156;11.530;2022-11-15T10:23:13;4.97;;;2.00;;
20557;SDS011;10437;48.156;11.530;2022-11-15T10:25:41;3.42;;;1.90;;
20557;SDS011;10437;48.156;11.530;2022-11-15T10:28:10;4.60;;;2.20;;
20557;SDS011;10437;48.156;11.530;2022-11-15T10:30:42;5.43;;;2.10;;
20557;SDS011;10437;48.156;11.530;2022-11-15T10:33:17;3.80;;;2.13;;
20557;SDS011;10437;48.156;11.530;2022-11-15T10:35:48;6.05;;;2.25;;
20557;SDS011;10437;48.156;11.530;2022-11-15T10:38:15;8.23;;;2.78;;
20557;SDS011;10437;48.156;11.530;2022-11-15T10:40:42;5.38;;;1.95;;
20557;SDS011;10437;48.156;11.530;2022-11-15T10:43:14;5.25;;;1.85;;
20557;SDS011;10437;48.156;11.530;2022-11-15T10:45:44;3.47;;;2.00;;
20557;SDS011;10437;48.156;11.530;2022-11-15T10:48:22;4.07;;;2.15;;
20557;SDS011;10437;48.156;11.530;2022-11-15T10:50:51;4.70;;;1.77;;
20557;SDS011;10437;48.156;11.530;2022-11-15T10:53:24;3.42;;;1.88;;
20557;SDS011;10437;48.156;11.530;2022-11-15T10:55:56;3.03;;;1.67;;
20557;SDS011;10437;48.156;11.530;2022-11-15T10:58:31;3.83;;;1.83;;
20557;SDS011;10437;48.156;11.530;2022-11-15T11:01:15;7.13;;;1.77;;
20557;SDS011;10437;48.156;11.530;2022-11-15T11:03:44;3.10;;;1.50;;
20557;SDS011;10437;48.156;11.530;2022-11-15T11:06:13;3.45;;;1.50;;
20557;SDS011;10437;48.156;11.530;2022-11-15T11:08:41;3.08;;;1.20;;
20557;SDS011;10437;48.156;11.530;2022-11-15T11:11:20;3.05;;;1.50;;
20557;SDS011;10437;48.156;11.530;2022-11-15T11:13:47;3.67;;;1.27;;
20557;SDS011;10437;48.156;11.530;2022-11-15T11:19:16;3.28;;;1.60;;
20557;SDS011;10437;48.156;11.530;2022-11-15T11:22:04;3.08;;;1.48;;
20557;SDS011;10437;48.156;11.530;2022-11-15T11:24:40;2.78;;;1.60;;
20557;SDS011;10437;48.156;11.530;2022-11-15T11:27:18;2.55;;;1.42;;
20557;SDS011;10437;48.156;11.530;2022-11-15T11:30:01;4.78;;;1.63;;
20557;SDS011;10437;48.156;11.530;2022-11-15T11:32:39;3.35;;;1.63;;
20557;SDS011;10437;48.156;11.530;2022-11-15T11:35:20;3.28;;;1.80;;
20557;SDS011;10437;48.156;11.530;2022-11-15T11:37:53;5.18;;;1.35;;
20557;SDS011;10437;48.156;11.530;2022-11-15T11:40:27;5.57;;;1.63;;
20557;SDS011;10437;48.156;11.530;2022-11-15T11:42:58;1.83;;;1.50;;
20557;SDS011;10437;48.156;11.530;2022-11-15T11:45:40;3.13;;;1.52;;
20557;SDS011;10437;48.156;11.530;2022-11-15T11:48:20;2.72;;;1.52;;
20557;SDS011;10437;48.156;11.530;2022-11-15T11:51:03;1.88;;;1.25;;
20557;SDS011;10437;48.156;11.530;2022-11-15T11:53:37;2.30;;;1.50;;
20557;SDS011;10437;48.156;11.530;2022-11-15T11:56:11;2.45;;;1.50;;
20557;SDS011;10437;48.156;11.530;2022-11-15T11:58:45;3.38;;;1.20;;
20557;SDS011;10437;48.156;11.530;2022-11-15T12:01:14;3.08;;;1.38;;
20557;SDS011;10437;48.156;11.530;2022-11-15T12:03:48;1.98;;;1.50;;
20557;SDS011;10437;48.156;11.530;2022-11-15T12:06:21;6.25;;;1.83;;
20557;SDS011;10437;48.156;11.530;2022-11-15T12:08:53;3.42;;;1.67;;
20557;SDS011;10437;48.156;11.530;2022-11-15T12:11:27;2.83;;;1.42;;
20557;SDS011;10437;48.156;11.530;2022-11-15T12:14:03;1.30;;;1.17;;
20557;SDS011;10437;48.156;11.530;2022-11-15T12:16:35;3.75;;;1.17;;
20557;SDS011;10437;48.156;11.530;2022-11-15T12:19:04;3.53;;;1.30;;
20557;SDS011;10437;48.156;11.530;2022-11-15T12:21:34;3.03;;;1.40;;
20557;SDS011;10437;48.156;11.530;2022-11-15T12:24:08;2.83;;;1.48;;
20557;SDS011;10437;48.156;11.530;2022-11-15T12:26:41;2.40;;;1.30;;
20557;SDS011;10437;48.156;11.530;2022-11-15T12:29:20;2.15;;;1.17;;
20557;SDS011;10437;48.156;11.530;2022-11-15T12:31:52;2.55;;;1.48;;
20557;SDS011;10437;48.156;11.530;2022-11-15T12:34:42;3.35;;;1.27;;
20557;SDS011;10437;48.156;11.530;2022-11-15T12:40:23;5.53;;;1.73;;
20557;SDS011;10437;48.156;11.530;2022-11-15T12:45:55;2.90;;;1.42;;
20557;SDS011;10437;48.156;11.530;2022-11-15T13:03:20;3.15;;;1.85;;
20557;SDS011;10437;48.156;11.530;2022-11-15T13:05:55;6.20;;;1.80;;
20557;SDS011;10437;48.156;11.530;2022-11-15T13:08:40;3.58;;;1.70;;
20557;SDS011;10437;48.156;11.530;2022-11-15T13:14:47;6.25;;;1.60;;
20557;SDS011;10437;48.156;11.530;2022-11-15T13:17:29;2.60;;;1.73;;
20557;SDS011;10437;48.156;11.530;2022-11-15T13:20:16;3.65;;;1.88;;
20557;SDS011;10437;48.156;11.530;2022-11-15T13:22:46;3.70;;;1.70;;
20557;SDS011;10437;48.156;11.530;2022-11-15T13:25:18;2.25;;;1.65;;
20557;SDS011;10437;48.156;11.530;2022-11-15T13:27:53;2.03;;;1.55;;
20557;SDS011;10437;48.156;11.530;2022-11-15T13:30:24;3.08;;;1.48;;
20557;SDS011;10437;48.156;11.530;2022-11-15T13:32:52;3.90;;;1.52;;
20557;SDS011;10437;48.156;11.530;2022-11-15T13:35:23;2.88;;;1.48;;
20557;SDS011;10437;48.156;11.530;2022-11-15T13:37:53;2.97;;;1.80;;
20557;SDS011;10437;48.156;11.530;2022-11-15T13:40:22;2.17;;;1.40;;
20557;SDS011;10437;48.156;11.530;2022-11-15T13:42:52;2.17;;;1.38;;
20557;SDS011;10437;48.156;11.530;2022-11-15T13:45:19;2.05;;;1.60;;
20557;SDS011;10437;48.156;11.530;2022-11-15T13:47:53;2.63;;;1.60;;
20557;SDS011;10437;48.156;11.530;2022-11-15T13:50:22;2.97;;;1.75;;
20557;SDS011;10437;48.156;11.530;2022-11-15T13:52:53;3.60;;;1.95;;
20557;SDS011;10437;48.156;11.530;2022-11-15T13:55:23;3.40;;;1.85;;
20557;SDS011;10437;48.156;11.530;2022-11-15T13:57:51;9.75;;;1.80;;
20557;SDS011;10437;48.156;11.530;2022-11-15T14:00:25;5.30;;;1.75;;
20557;SDS011;10437;48.156;11.530;2022-11-15T14:02:57;2.97;;;1.75;;
20557;SDS011;10437;48.156;11.530;2022-11-15T14:05:33;2.97;;;1.88;;
20557;SDS011;10437;48.156;11.530;2022-11-15T14:08:01;2.83;;;1.50;;
20557;SDS011;10437;48.156;11.530;2022-11-15T14:10:30;2.45;;;1.60;;
20557;SDS011;10437;48.156;11.530;2022-11-15T14:12:59;2.30;;;1.75;;
20557;SDS011;10437;48.156;11.530;2022-11-15T14:15:28;3.92;;;1.98;;
20557;SDS011;10437;48.156;11.530;2022-11-15T14:17:58;4.53;;;1.85;;
20557;SDS011;10437;48.156;11.530;2022-11-15T14:20:27;3.28;;;2.05;;
20557;SDS011;10437;48.156;11.530;2022-11-15T14:22:57;3.30;;;1.60;;
20557;SDS011;10437;48.156;11.530;2022-11-15T14:25:25;3.10;;;2.00;;
20557;SDS011;10437;48.156;11.530;2022-11-15T14:28:09;4.63;;;1.90;;
20557;SDS011;10437;48.156;11.530;2022-11-15T14:30:39;3.00;;;1.77;;
20557;SDS011;10437;48.156;11.530;2022-11-15T14:33:18;3.38;;;1.90;;
20557;SDS011;10437;48.156;11.530;2022-11-15T14:35:47;4.40;;;2.70;;
20557;SDS011;10437;48.156;11.530;2022-11-15T14:38:14;5.65;;;3.20;;
20557;SDS011;10437;48.156;11.530;2022-11-15T14:40:41;8.18;;;3.13;;
20557;SDS011;10437;48.156;11.530;2022-11-15T14:43:09;8.02;;;3.00;;
20557;SDS011;10437;48.156;11.530;2022-11-15T14:45:37;4.53;;;3.33;;
20557;SDS011;10437;48.156;11.530;2022-11-15T14:48:04;4.35;;;3.20;;
20557;SDS011;10437;48.156;11.530;2022-11-15T14:50:33;3.88;;;3.03;;
20557;SDS011;10437;48.156;11.530;2022-11-15T14:53:01;8.15;;;3.40;;
20557;SDS011;10437;48.156;11.530;2022-11-15T14:55:28;6.63;;;3.38;;
20557;SDS011;10437;48.156;11.530;2022-11-15T14:57:57;8.13;;;3.75;;
20557;SDS011;10437;48.156;11.530;2022-11-15T15:00:24;10.35;;;3.95;;
20557;SDS011;10437;48.156;11.530;2022-11-15T15:02:52;8.77;;;4.90;;
20557;SDS011;10437;48.156;11.530;2022-11-15T15:05:20;8.32;;;4.20;;
20557;SDS011;10437;48.156;11.530;2022-11-15T15:07:50;7.43;;;4.43;;
20557;SDS011;10437;48.156;11.530;2022-11-15T15:10:18;8.55;;;4.35;;
20557;SDS011;10437;48.156;11.530;2022-11-15T15:12:45;7.32;;;4.18;;
20557;SDS011;10437;48.156;11.530;2022-11-15T15:15:13;7.57;;;3.60;;
20557;SDS011;10437;48.156;11.530;2022-11-15T15:17:40;7.50;;;4.10;;
20557;SDS011;10437;48.156;11.530;2022-11-15T15:20:08;7.43;;;3.63;;
20557;SDS011;10437;48.156;11.530;2022-11-15T15:22:35;6.45;;;3.75;;